createdAt,value
2019-06-20T00:00:31.802Z,17.73
2019-06-20T00:01:08.499Z,17.72
2019-06-20T00:01:43.938Z,17.64
2019-06-20T00:02:20.183Z,17.62
2019-06-20T00:02:56.470Z,17.64
2019-06-20T00:03:31.948Z,17.64
2019-06-20T00:04:08.215Z,17.63
2019-06-20T00:04:44.406Z,17.65
2019-06-20T00:05:20.121Z,17.66
2019-06-20T00:05:56.323Z,17.68
2019-06-20T00:06:32.544Z,17.60
2019-06-20T00:07:08.011Z,17.64
2019-06-20T00:07:44.268Z,17.61
2019-06-20T00:08:20.499Z,17.67
2019-06-20T00:08:56.006Z,17.61
2019-06-20T00:09:32.259Z,17.67
2019-06-20T00:10:08.709Z,17.63
2019-06-20T00:10:44.592Z,17.64
2019-06-20T00:11:20.842Z,17.62
2019-06-20T00:11:58.303Z,17.55
2019-06-20T00:12:33.729Z,17.64
2019-06-20T00:13:10.097Z,17.62
2019-06-20T00:13:46.438Z,17.58
2019-06-20T00:14:21.915Z,17.61
2019-06-20T00:14:58.704Z,17.62
2019-06-20T00:15:35.167Z,17.67
2019-06-20T00:16:10.568Z,17.68
2019-06-20T00:16:46.790Z,17.68
2019-06-20T00:17:22.972Z,17.70
2019-06-20T00:17:58.406Z,17.74
2019-06-20T00:18:34.650Z,17.75
2019-06-20T00:19:11.105Z,17.59
2019-06-20T00:19:46.590Z,17.60
2019-06-20T00:20:22.860Z,17.63
2019-06-20T00:20:59.093Z,17.68
2019-06-20T00:21:34.564Z,17.73
2019-06-20T00:22:10.633Z,17.66
2019-06-20T00:22:46.878Z,17.75
2019-06-20T00:23:22.396Z,17.77
2019-06-20T00:23:58.676Z,17.80
2019-06-20T00:24:34.904Z,17.82
2019-06-20T00:25:10.329Z,17.80
2019-06-20T00:25:46.718Z,17.78
2019-06-20T00:26:23.843Z,17.77
2019-06-20T00:26:59.282Z,17.76
2019-06-20T00:27:35.488Z,17.75
2019-06-20T00:28:11.697Z,17.77
2019-06-20T00:28:47.168Z,17.84
2019-06-20T00:29:23.427Z,17.83
2019-06-20T00:29:59.618Z,17.83
2019-06-20T00:30:35.026Z,17.83
2019-06-20T00:31:11.263Z,17.76
2019-06-20T00:31:47.502Z,17.79
2019-06-20T00:32:22.934Z,17.82
2019-06-20T00:32:59.228Z,17.84
2019-06-20T00:33:35.473Z,17.83
2019-06-20T00:34:10.965Z,17.81
2019-06-20T00:34:47.219Z,17.79
2019-06-20T00:35:23.432Z,17.80
2019-06-20T00:35:58.915Z,17.80
2019-06-20T00:36:35.143Z,17.91
2019-06-20T00:37:11.392Z,17.89
2019-06-20T00:37:46.842Z,17.88
2019-06-20T00:38:23.199Z,17.82
2019-06-20T00:38:59.472Z,17.87
2019-06-20T00:39:34.991Z,17.83
2019-06-20T00:40:12.717Z,17.83
2019-06-20T00:40:48.981Z,17.82
2019-06-20T00:41:24.494Z,17.83
2019-06-20T00:42:00.723Z,17.91
2019-06-20T00:42:36.927Z,17.88
2019-06-20T00:43:17.295Z,17.78
2019-06-20T00:43:50.404Z,17.76
2019-06-20T00:44:26.713Z,17.67
2019-06-20T00:45:02.180Z,17.66
2019-06-20T00:45:38.412Z,17.72
2019-06-20T00:46:14.734Z,17.74
2019-06-20T00:46:50.196Z,17.80
2019-06-20T00:47:26.432Z,17.81
2019-06-20T00:48:02.665Z,17.82
2019-06-20T00:48:38.101Z,17.85
2019-06-20T00:49:14.343Z,17.84
2019-06-20T00:49:50.638Z,17.88
2019-06-20T00:50:26.233Z,17.84
2019-06-20T00:51:02.477Z,17.87
2019-06-20T00:51:38.779Z,17.87
2019-06-20T00:52:14.205Z,17.81
2019-06-20T00:52:50.457Z,17.81
2019-06-20T00:53:26.709Z,17.77
2019-06-20T00:54:02.181Z,17.85
2019-06-20T00:54:38.401Z,17.89
2019-06-20T00:55:14.690Z,17.82
2019-06-20T00:55:50.171Z,17.80
2019-06-20T00:56:26.413Z,17.79
2019-06-20T00:57:02.705Z,17.82
2019-06-20T00:57:38.194Z,17.82
2019-06-20T00:58:14.434Z,17.84
2019-06-20T00:58:51.032Z,17.81
2019-06-20T00:59:26.445Z,17.88
2019-06-20T01:00:02.738Z,17.82
2019-06-20T01:00:39.008Z,17.82
2019-06-20T01:01:15.089Z,17.85
2019-06-20T01:01:51.335Z,17.84
2019-06-20T01:02:27.562Z,17.87
2019-06-20T01:03:03.036Z,17.83
2019-06-20T01:03:39.272Z,17.88
2019-06-20T01:04:15.633Z,17.89
2019-06-20T01:04:51.070Z,17.95
2019-06-20T01:05:27.256Z,17.95
2019-06-20T01:06:03.490Z,17.96
2019-06-20T01:06:38.942Z,17.92
2019-06-20T01:07:15.178Z,17.91
2019-06-20T01:07:51.450Z,17.92
2019-06-20T01:08:26.915Z,17.94
2019-06-20T01:09:03.170Z,17.91
2019-06-20T01:09:39.417Z,17.96
2019-06-20T01:10:15.275Z,18.02
2019-06-20T01:10:51.541Z,17.97
2019-06-20T01:11:27.766Z,18.00
2019-06-20T01:12:03.189Z,18.02
2019-06-20T01:12:39.474Z,17.97
2019-06-20T01:13:15.772Z,17.99
2019-06-20T01:13:52.893Z,17.99
2019-06-20T01:14:29.302Z,17.99
2019-06-20T01:15:06.594Z,17.96
2019-06-20T01:15:42.103Z,17.93
2019-06-20T01:16:18.350Z,17.94
2019-06-20T01:16:54.596Z,17.95
2019-06-20T01:17:30.068Z,17.95
2019-06-20T01:18:06.419Z,17.93
2019-06-20T01:18:42.626Z,17.95
2019-06-20T01:19:18.210Z,17.92
2019-06-20T01:19:58.138Z,17.88
2019-06-20T01:20:32.496Z,17.92
2019-06-20T01:21:08.902Z,17.99
2019-06-20T01:21:45.150Z,18.00
2019-06-20T01:22:21.368Z,18.02
2019-06-20T01:22:56.800Z,17.97
2019-06-20T01:23:33.228Z,17.99
2019-06-20T01:24:09.447Z,17.99
2019-06-20T01:24:44.918Z,17.97
2019-06-20T01:25:39.249Z,17.94
2019-06-20T01:26:15.474Z,17.89
2019-06-20T01:26:51.074Z,17.87
2019-06-20T01:27:27.314Z,17.92
2019-06-20T01:28:03.565Z,17.91
2019-06-20T01:28:39.041Z,17.92
2019-06-20T01:29:15.265Z,17.88
2019-06-20T01:29:51.583Z,17.82
2019-06-20T01:30:27.030Z,17.88
2019-06-20T01:31:03.298Z,17.92
2019-06-20T01:31:39.542Z,17.81
2019-06-20T01:32:15.040Z,17.77
2019-06-20T01:32:51.308Z,17.81
2019-06-20T01:33:27.494Z,17.79
2019-06-20T01:34:03.101Z,17.82
2019-06-20T01:34:39.348Z,17.78
2019-06-20T01:35:15.821Z,17.81
2019-06-20T01:35:51.250Z,17.83
2019-06-20T01:36:27.504Z,17.85
2019-06-20T01:37:03.752Z,17.84
2019-06-20T01:37:39.407Z,17.84
2019-06-20T01:38:15.619Z,17.82
2019-06-20T01:38:51.863Z,17.83
2019-06-20T01:39:27.464Z,17.83
2019-06-20T01:40:03.759Z,17.76
2019-06-20T01:40:40.065Z,17.80
2019-06-20T01:41:15.633Z,17.81
2019-06-20T01:41:51.969Z,17.84
2019-06-20T01:42:28.149Z,17.81
2019-06-20T01:43:03.752Z,17.83
2019-06-20T01:43:50.077Z,17.83
2019-06-20T01:44:17.923Z,17.82
2019-06-20T01:44:53.420Z,17.73
2019-06-20T01:45:29.697Z,17.74
2019-06-20T01:46:06.007Z,17.73
2019-06-20T01:46:41.467Z,17.77
2019-06-20T01:47:17.739Z,17.72
2019-06-20T01:47:53.951Z,17.69
2019-06-20T01:48:29.386Z,17.70
2019-06-20T01:49:05.897Z,17.68
2019-06-20T01:49:42.189Z,17.73
2019-06-20T01:50:17.730Z,17.68
2019-06-20T01:50:54.004Z,17.68
2019-06-20T01:51:30.232Z,17.64
2019-06-20T01:52:05.673Z,17.69
2019-06-20T01:52:41.910Z,17.76
2019-06-20T01:53:18.173Z,17.74
2019-06-20T01:53:53.634Z,17.69
2019-06-20T01:54:29.874Z,17.66
2019-06-20T01:55:06.327Z,17.69
2019-06-20T01:55:42.226Z,17.69
2019-06-20T01:56:19.981Z,17.76
2019-06-20T01:56:56.359Z,17.73
2019-06-20T01:57:31.827Z,17.64
2019-06-20T01:58:08.060Z,17.64
2019-06-20T01:58:44.350Z,17.67
2019-06-20T01:59:19.835Z,17.58
2019-06-20T01:59:56.093Z,17.62
2019-06-20T02:00:51.883Z,17.54
2019-06-20T02:01:27.313Z,17.60
2019-06-20T02:02:03.616Z,17.58
2019-06-20T02:02:39.902Z,17.65
2019-06-20T02:03:16.003Z,17.74
2019-06-20T02:03:52.242Z,17.70
2019-06-20T02:04:28.462Z,17.73
2019-06-20T02:05:04.741Z,17.74
2019-06-20T02:05:40.991Z,17.72
2019-06-20T02:06:17.180Z,17.66
2019-06-20T02:06:52.639Z,17.67
2019-06-20T02:07:28.999Z,17.67
2019-06-20T02:08:05.224Z,17.72
2019-06-20T02:08:40.658Z,17.68
2019-06-20T02:09:16.891Z,17.68
2019-06-20T02:09:54.788Z,17.67
2019-06-20T02:10:30.243Z,17.73
2019-06-20T02:11:06.668Z,17.72
2019-06-20T02:11:43.092Z,17.75
2019-06-20T02:12:18.534Z,17.79
2019-06-20T02:12:54.788Z,17.80
2019-06-20T02:13:31.035Z,17.82
2019-06-20T02:14:07.721Z,17.78
2019-06-20T02:14:44.117Z,17.85
2019-06-20T02:15:20.328Z,17.83
2019-06-20T02:15:55.761Z,17.77
2019-06-20T02:16:31.959Z,17.78
2019-06-20T02:17:08.200Z,17.81
2019-06-20T02:17:43.686Z,17.77
2019-06-20T02:18:19.932Z,17.77
2019-06-20T02:18:56.162Z,17.74
2019-06-20T02:19:31.595Z,17.70
2019-06-20T02:20:08.924Z,17.72
2019-06-20T02:20:53.075Z,17.66
2019-06-20T02:21:28.639Z,17.60
2019-06-20T02:22:04.898Z,17.70
2019-06-20T02:22:41.130Z,17.70
2019-06-20T02:23:16.743Z,17.73
2019-06-20T02:23:52.964Z,17.73
2019-06-20T02:24:29.324Z,17.75
2019-06-20T02:25:05.608Z,17.75
2019-06-20T02:25:41.867Z,17.73
2019-06-20T02:26:18.121Z,17.76
2019-06-20T02:26:53.531Z,17.73
2019-06-20T02:27:29.932Z,17.70
2019-06-20T02:28:06.197Z,17.75
2019-06-20T02:28:41.636Z,17.83
2019-06-20T02:29:17.929Z,17.76
2019-06-20T02:29:54.361Z,17.81
2019-06-20T02:30:29.879Z,17.87
2019-06-20T02:31:06.130Z,17.82
2019-06-20T02:31:42.449Z,17.78
2019-06-20T02:32:17.858Z,17.81
2019-06-20T02:32:54.126Z,17.79
2019-06-20T02:33:30.395Z,17.78
2019-06-20T02:34:06.096Z,17.78
2019-06-20T02:34:42.489Z,17.81
2019-06-20T02:35:18.734Z,17.78
2019-06-20T02:35:54.130Z,17.77
2019-06-20T02:36:30.405Z,17.78
2019-06-20T02:37:06.591Z,17.79
2019-06-20T02:37:42.044Z,17.74
2019-06-20T02:38:18.316Z,17.77
2019-06-20T02:38:54.556Z,17.70
2019-06-20T02:39:30.024Z,17.74
2019-06-20T02:40:06.823Z,17.79
2019-06-20T02:40:43.042Z,17.78
2019-06-20T02:41:18.493Z,17.73
2019-06-20T02:41:54.725Z,17.69
2019-06-20T02:42:30.945Z,17.76
2019-06-20T02:43:06.993Z,17.73
2019-06-20T02:43:43.274Z,17.73
2019-06-20T02:44:30.175Z,17.68
2019-06-20T02:44:56.833Z,17.60
2019-06-20T02:45:38.108Z,17.63
2019-06-20T02:46:14.343Z,17.68
2019-06-20T02:46:49.862Z,17.77
2019-06-20T02:47:26.229Z,17.72
2019-06-20T02:48:02.672Z,17.70
2019-06-20T02:48:38.148Z,17.68
2019-06-20T02:49:14.417Z,17.75
2019-06-20T02:49:50.744Z,17.77
2019-06-20T02:50:27.189Z,17.70
2019-06-20T02:51:05.837Z,17.73
2019-06-20T02:51:42.270Z,17.72
2019-06-20T02:52:17.702Z,17.74
2019-06-20T02:52:53.922Z,17.74
2019-06-20T02:53:30.231Z,17.77
2019-06-20T02:54:05.696Z,17.80
2019-06-20T02:54:41.956Z,17.87
2019-06-20T02:55:18.495Z,17.84
2019-06-20T02:55:53.911Z,17.77
2019-06-20T02:56:30.152Z,17.76
2019-06-20T02:57:06.375Z,17.73
2019-06-20T02:57:41.840Z,17.76
2019-06-20T02:58:18.087Z,17.75
2019-06-20T02:58:54.314Z,17.75
2019-06-20T02:59:30.171Z,17.70
2019-06-20T03:00:07.588Z,17.77
2019-06-20T03:00:59.247Z,17.74
2019-06-20T03:01:34.757Z,17.76
2019-06-20T03:02:11.012Z,17.73
2019-06-20T03:02:47.267Z,17.82
2019-06-20T03:03:24.301Z,17.81
2019-06-20T03:04:00.612Z,17.78
2019-06-20T03:04:36.931Z,17.77
2019-06-20T03:05:12.493Z,17.80
2019-06-20T03:05:48.776Z,17.80
2019-06-20T03:06:25.015Z,17.76
2019-06-20T03:07:00.609Z,17.72
2019-06-20T03:07:36.863Z,17.70
2019-06-20T03:08:13.689Z,17.80
2019-06-20T03:08:49.115Z,17.79
2019-06-20T03:09:25.346Z,17.77
2019-06-20T03:10:01.618Z,17.74
2019-06-20T03:10:37.093Z,17.72
2019-06-20T03:11:13.371Z,17.74
2019-06-20T03:11:49.586Z,17.77
2019-06-20T03:12:24.992Z,17.81
2019-06-20T03:13:01.262Z,17.79
2019-06-20T03:13:37.518Z,17.80
2019-06-20T03:14:12.963Z,17.78
2019-06-20T03:14:49.224Z,17.84
2019-06-20T03:15:25.494Z,17.81
2019-06-20T03:16:00.998Z,17.77
2019-06-20T03:16:37.254Z,17.74
2019-06-20T03:17:13.478Z,17.85
2019-06-20T03:17:48.911Z,17.83
2019-06-20T03:18:25.105Z,17.79
2019-06-20T03:19:01.317Z,17.83
2019-06-20T03:19:38.338Z,17.83
2019-06-20T03:20:15.313Z,17.91
2019-06-20T03:20:51.534Z,17.93
2019-06-20T03:21:26.949Z,17.87
2019-06-20T03:22:03.208Z,17.88
2019-06-20T03:22:39.416Z,17.90
2019-06-20T03:23:14.919Z,17.93
2019-06-20T03:23:51.221Z,17.85
2019-06-20T03:24:27.410Z,17.85
2019-06-20T03:25:02.917Z,17.87
2019-06-20T03:25:39.163Z,17.85
2019-06-20T03:26:15.451Z,17.88
2019-06-20T03:26:50.888Z,17.88
2019-06-20T03:27:27.170Z,17.88
2019-06-20T03:28:03.452Z,17.92
2019-06-20T03:28:38.918Z,17.88
2019-06-20T03:29:15.162Z,17.94
2019-06-20T03:29:51.438Z,17.92
2019-06-20T03:30:26.913Z,17.88
2019-06-20T03:31:03.195Z,17.94
2019-06-20T03:31:39.382Z,17.88
2019-06-20T03:32:14.947Z,17.94
2019-06-20T03:32:51.216Z,17.90
2019-06-20T03:33:27.390Z,17.92
2019-06-20T03:34:02.827Z,17.85
2019-06-20T03:34:39.056Z,17.83
2019-06-20T03:35:15.341Z,17.81
2019-06-20T03:35:50.767Z,17.83
2019-06-20T03:36:27.026Z,17.88
2019-06-20T03:37:03.355Z,17.88
2019-06-20T03:37:38.818Z,17.89
2019-06-20T03:38:15.055Z,17.89
2019-06-20T03:38:51.250Z,17.92
2019-06-20T03:39:26.704Z,17.92
2019-06-20T03:40:02.881Z,17.88
2019-06-20T03:40:39.127Z,17.87
2019-06-20T03:41:14.576Z,17.88
2019-06-20T03:41:50.803Z,17.91
2019-06-20T03:42:27.050Z,17.88
2019-06-20T03:43:02.519Z,17.91
2019-06-20T03:43:38.775Z,17.89
2019-06-20T03:44:14.968Z,17.83
2019-06-20T03:45:01.814Z,17.84
2019-06-20T03:45:28.437Z,17.85
2019-06-20T03:46:04.664Z,17.90
2019-06-20T03:46:40.085Z,17.85
2019-06-20T03:47:24.354Z,17.83
2019-06-20T03:48:00.679Z,17.81
2019-06-20T03:48:36.178Z,17.85
2019-06-20T03:49:12.386Z,17.85
2019-06-20T03:49:48.602Z,17.87
2019-06-20T03:50:24.010Z,17.83
2019-06-20T03:51:00.213Z,17.88
2019-06-20T03:51:36.425Z,17.92
2019-06-20T03:52:11.849Z,17.85
2019-06-20T03:52:49.772Z,17.84
2019-06-20T03:53:25.987Z,17.90
2019-06-20T03:54:01.398Z,17.98
2019-06-20T03:54:37.597Z,17.95
2019-06-20T03:55:14.257Z,17.95
2019-06-20T03:55:49.693Z,17.94
2019-06-20T03:56:26.009Z,17.99
2019-06-20T03:57:02.297Z,17.93
2019-06-20T03:57:37.743Z,17.92
2019-06-20T03:58:13.954Z,17.84
2019-06-20T03:58:50.297Z,17.81
2019-06-20T03:59:25.846Z,17.83
2019-06-20T04:00:02.700Z,17.85
2019-06-20T04:00:39.322Z,17.78
2019-06-20T04:01:14.786Z,17.80
2019-06-20T04:01:51.015Z,17.83
2019-06-20T04:02:27.197Z,17.85
2019-06-20T04:03:03.112Z,17.85
2019-06-20T04:03:39.410Z,17.87
2019-06-20T04:04:15.696Z,17.85
2019-06-20T04:04:51.128Z,17.88
2019-06-20T04:05:27.403Z,17.78
2019-06-20T04:06:03.645Z,17.77
2019-06-20T04:06:39.121Z,17.74
2019-06-20T04:07:15.345Z,17.80
2019-06-20T04:07:51.557Z,17.82
2019-06-20T04:08:27.146Z,17.87
2019-06-20T04:09:03.425Z,17.83
2019-06-20T04:09:39.664Z,17.84
2019-06-20T04:10:15.225Z,17.82
2019-06-20T04:10:51.400Z,17.84
2019-06-20T04:11:27.628Z,17.84
2019-06-20T04:12:03.177Z,17.88
2019-06-20T04:12:39.421Z,17.82
2019-06-20T04:13:15.663Z,17.87
2019-06-20T04:13:51.069Z,17.88
2019-06-20T04:14:27.392Z,17.91
2019-06-20T04:15:17.987Z,17.96
2019-06-20T04:15:40.901Z,17.93
2019-06-20T04:16:17.151Z,17.88
2019-06-20T04:16:53.393Z,17.88
2019-06-20T04:17:28.867Z,17.85
2019-06-20T04:18:05.166Z,17.88
2019-06-20T04:18:42.791Z,17.92
2019-06-20T04:19:18.323Z,17.92
2019-06-20T04:19:54.553Z,17.91
2019-06-20T04:20:30.790Z,17.92
2019-06-20T04:21:06.394Z,17.85
2019-06-20T04:21:42.833Z,17.88
2019-06-20T04:22:19.061Z,17.85
2019-06-20T04:22:54.525Z,17.90
2019-06-20T04:23:30.803Z,17.77
2019-06-20T04:24:07.047Z,17.72
2019-06-20T04:24:42.775Z,17.75
2019-06-20T04:25:19.116Z,17.70
2019-06-20T04:25:55.365Z,17.77
2019-06-20T04:26:30.827Z,17.75
2019-06-20T04:27:07.107Z,17.72
2019-06-20T04:27:43.361Z,17.77
2019-06-20T04:28:19.263Z,17.78
2019-06-20T04:28:55.529Z,17.81
2019-06-20T04:29:31.702Z,17.83
2019-06-20T04:30:08.935Z,17.85
2019-06-20T04:30:45.240Z,17.89
2019-06-20T04:31:21.656Z,17.84
2019-06-20T04:31:57.008Z,17.80
2019-06-20T04:32:33.315Z,17.72
2019-06-20T04:33:09.587Z,17.75
2019-06-20T04:33:45.064Z,17.77
2019-06-20T04:34:21.288Z,17.75
2019-06-20T04:34:57.541Z,17.74
2019-06-20T04:35:32.957Z,17.68
2019-06-20T04:36:09.219Z,17.73
2019-06-20T04:36:48.059Z,17.76
2019-06-20T04:37:22.724Z,17.69
2019-06-20T04:37:59.051Z,17.74
2019-06-20T04:38:35.309Z,17.80
2019-06-20T04:39:19.220Z,17.79
2019-06-20T04:39:48.813Z,17.78
2019-06-20T04:40:25.051Z,17.74
2019-06-20T04:41:00.521Z,17.70
2019-06-20T04:41:36.767Z,17.77
2019-06-20T04:42:12.950Z,17.76
2019-06-20T04:42:48.431Z,17.72
2019-06-20T04:43:24.719Z,17.66
2019-06-20T04:44:00.923Z,17.70
2019-06-20T04:44:36.536Z,17.75
2019-06-20T04:45:34.631Z,17.73
2019-06-20T04:46:07.084Z,17.69
2019-06-20T04:46:48.071Z,17.63
2019-06-20T04:47:24.290Z,17.61
2019-06-20T04:48:00.768Z,17.56
2019-06-20T04:48:36.190Z,17.60
2019-06-20T04:49:12.374Z,17.63
2019-06-20T04:49:48.634Z,17.65
2019-06-20T04:50:24.071Z,17.62
2019-06-20T04:51:00.347Z,17.68
2019-06-20T04:51:36.559Z,17.72
2019-06-20T04:52:12.386Z,17.72
2019-06-20T04:52:48.637Z,17.68
2019-06-20T04:53:24.914Z,17.60
2019-06-20T04:54:00.424Z,17.56
2019-06-20T04:54:36.695Z,17.48
2019-06-20T04:55:13.272Z,17.52
2019-06-20T04:55:48.742Z,17.55
2019-06-20T04:56:25.129Z,17.51
2019-06-20T04:57:01.518Z,17.55
2019-06-20T04:57:37.048Z,17.54
2019-06-20T04:58:14.444Z,17.54
2019-06-20T04:58:50.821Z,17.50
2019-06-20T04:59:26.291Z,17.53
2019-06-20T05:00:05.253Z,17.55
2019-06-20T05:00:41.600Z,17.47
2019-06-20T05:01:17.189Z,17.38
2019-06-20T05:01:54.910Z,17.39
2019-06-20T05:02:37.281Z,17.38
2019-06-20T05:03:12.829Z,17.37
2019-06-20T05:03:49.082Z,17.38
2019-06-20T05:04:25.330Z,17.33
2019-06-20T05:05:00.872Z,17.32
2019-06-20T05:05:37.187Z,17.26
2019-06-20T05:06:13.499Z,17.29
2019-06-20T05:06:54.060Z,17.35
2019-06-20T05:07:30.323Z,17.36
2019-06-20T05:08:06.609Z,17.33
2019-06-20T05:08:42.140Z,17.34
2019-06-20T05:09:18.421Z,17.34
2019-06-20T05:09:54.645Z,17.35
2019-06-20T05:10:30.145Z,17.33
2019-06-20T05:11:06.490Z,17.30
2019-06-20T05:11:42.696Z,17.30
2019-06-20T05:12:18.187Z,17.34
2019-06-20T05:12:56.076Z,17.38
2019-06-20T05:13:32.363Z,17.41
2019-06-20T05:14:07.785Z,17.38
2019-06-20T05:14:44.050Z,17.32
2019-06-20T05:15:20.479Z,17.36
2019-06-20T05:15:55.958Z,17.40
2019-06-20T05:16:32.307Z,17.44
2019-06-20T05:17:08.576Z,17.40
2019-06-20T05:17:44.086Z,17.43
2019-06-20T05:18:20.329Z,17.43
2019-06-20T05:18:56.553Z,17.33
2019-06-20T05:19:32.054Z,17.38
2019-06-20T05:20:08.581Z,17.44
2019-06-20T05:20:45.595Z,17.46
2019-06-20T05:21:22.462Z,17.46
2019-06-20T05:21:58.799Z,17.43
2019-06-20T05:22:35.037Z,17.39
2019-06-20T05:23:10.523Z,17.39
2019-06-20T05:23:46.745Z,17.41
2019-06-20T05:24:25.547Z,17.44
2019-06-20T05:25:00.193Z,17.45
2019-06-20T05:25:36.845Z,17.48
2019-06-20T05:26:13.040Z,17.46
2019-06-20T05:26:48.535Z,17.46
2019-06-20T05:27:24.798Z,17.50
2019-06-20T05:28:01.454Z,17.50
2019-06-20T05:28:36.887Z,17.46
2019-06-20T05:29:13.149Z,17.50
2019-06-20T05:29:49.489Z,17.41
2019-06-20T05:30:25.167Z,17.40
2019-06-20T05:31:01.455Z,17.46
2019-06-20T05:31:37.778Z,17.49
2019-06-20T05:32:13.255Z,17.53
2019-06-20T05:32:49.462Z,17.56
2019-06-20T05:33:25.691Z,17.54
2019-06-20T05:34:01.255Z,17.51
2019-06-20T05:34:37.614Z,17.55
2019-06-20T05:35:14.276Z,17.56
2019-06-20T05:35:49.852Z,17.60
2019-06-20T05:36:26.094Z,17.52
2019-06-20T05:37:02.332Z,17.50
2019-06-20T05:37:37.799Z,17.51
2019-06-20T05:38:14.011Z,17.51
2019-06-20T05:38:50.394Z,17.48
2019-06-20T05:39:25.903Z,17.40
2019-06-20T05:40:03.661Z,17.45
2019-06-20T05:40:39.884Z,17.48
2019-06-20T05:41:15.379Z,17.43
2019-06-20T05:41:51.584Z,17.34
2019-06-20T05:42:27.825Z,17.38
2019-06-20T05:43:03.418Z,17.37
2019-06-20T05:43:39.932Z,17.35
2019-06-20T05:44:16.187Z,17.36
2019-06-20T05:44:51.638Z,17.37
2019-06-20T05:45:27.937Z,17.31
2019-06-20T05:46:09.242Z,17.39
2019-06-20T05:46:41.380Z,17.40
2019-06-20T05:47:17.672Z,17.36
2019-06-20T05:47:53.951Z,17.37
2019-06-20T05:48:29.505Z,17.36
2019-06-20T05:49:05.714Z,17.25
2019-06-20T05:49:41.939Z,17.34
2019-06-20T05:50:18.259Z,17.34
2019-06-20T05:50:54.613Z,17.33
2019-06-20T05:51:31.011Z,17.26
2019-06-20T05:52:06.473Z,17.26
2019-06-20T05:52:42.726Z,17.26
2019-06-20T05:53:18.995Z,17.34
2019-06-20T05:53:54.492Z,17.32
2019-06-20T05:54:30.786Z,17.32
2019-06-20T05:55:07.626Z,17.33
2019-06-20T05:55:43.092Z,17.33
2019-06-20T05:56:19.334Z,17.26
2019-06-20T05:56:55.647Z,17.23
2019-06-20T05:57:31.042Z,17.26
2019-06-20T05:58:08.304Z,17.26
2019-06-20T05:58:44.532Z,17.37
2019-06-20T05:59:20.089Z,17.33
2019-06-20T05:59:56.310Z,17.29
2019-06-20T06:00:32.750Z,17.31
2019-06-20T06:01:08.303Z,17.32
2019-06-20T06:01:44.581Z,17.39
2019-06-20T06:02:20.852Z,17.38
2019-06-20T06:02:56.353Z,17.34
2019-06-20T06:03:33.565Z,17.34
2019-06-20T06:04:09.874Z,17.45
2019-06-20T06:04:45.334Z,17.41
2019-06-20T06:05:21.580Z,17.43
2019-06-20T06:05:57.762Z,17.44
2019-06-20T06:06:33.647Z,17.45
2019-06-20T06:07:09.910Z,17.44
2019-06-20T06:07:46.212Z,17.47
2019-06-20T06:08:21.686Z,17.49
2019-06-20T06:08:57.959Z,17.55
2019-06-20T06:09:34.246Z,17.59
2019-06-20T06:10:10.654Z,17.63
2019-06-20T06:10:47.099Z,17.68
2019-06-20T06:11:23.419Z,17.72
2019-06-20T06:11:58.892Z,17.77
2019-06-20T06:12:36.323Z,17.82
2019-06-20T06:13:12.676Z,17.87
2019-06-20T06:13:48.308Z,17.64
2019-06-20T06:14:26.219Z,17.66
2019-06-20T06:15:02.422Z,17.67
2019-06-20T06:15:37.923Z,17.66
2019-06-20T06:16:25.730Z,17.62
2019-06-20T06:16:52.114Z,17.54
2019-06-20T06:17:27.584Z,17.52
2019-06-20T06:18:03.864Z,17.46
2019-06-20T06:18:40.112Z,17.50
2019-06-20T06:19:15.632Z,17.48
2019-06-20T06:19:51.881Z,17.44
2019-06-20T06:20:28.095Z,17.51
2019-06-20T06:21:03.561Z,17.54
2019-06-20T06:21:39.870Z,17.50
2019-06-20T06:22:17.876Z,17.59
2019-06-20T06:22:53.591Z,17.60
2019-06-20T06:23:29.969Z,17.64
2019-06-20T06:24:06.216Z,17.56
2019-06-20T06:24:41.672Z,17.65
2019-06-20T06:25:18.333Z,17.74
2019-06-20T06:25:54.537Z,17.70
2019-06-20T06:26:30.113Z,17.69
2019-06-20T06:27:06.366Z,17.68
2019-06-20T06:27:42.636Z,17.69
2019-06-20T06:28:18.146Z,17.67
2019-06-20T06:28:54.429Z,17.55
2019-06-20T06:29:30.703Z,17.43
2019-06-20T06:30:08.388Z,17.32
2019-06-20T06:30:44.777Z,17.36
2019-06-20T06:31:21.035Z,17.37
2019-06-20T06:31:56.493Z,17.37
2019-06-20T06:32:40.135Z,17.35
2019-06-20T06:33:10.802Z,17.36
2019-06-20T06:33:46.272Z,17.34
2019-06-20T06:34:22.506Z,17.41
2019-06-20T06:34:58.850Z,17.47
2019-06-20T06:35:34.364Z,17.40
2019-06-20T06:36:10.585Z,17.35
2019-06-20T06:36:47.153Z,17.34
2019-06-20T06:37:22.672Z,17.26
2019-06-20T06:37:59.501Z,17.19
2019-06-20T06:38:35.875Z,17.20
2019-06-20T06:39:11.883Z,17.15
2019-06-20T06:39:48.085Z,17.15
2019-06-20T06:40:24.866Z,17.24
2019-06-20T06:41:00.308Z,17.29
2019-06-20T06:41:37.033Z,17.31
2019-06-20T06:42:13.247Z,17.26
2019-06-20T06:42:48.751Z,17.31
2019-06-20T06:43:25.001Z,17.29
2019-06-20T06:44:01.250Z,17.38
2019-06-20T06:44:36.721Z,17.44
2019-06-20T06:45:13.987Z,17.48
2019-06-20T06:45:50.308Z,17.51
2019-06-20T06:46:42.550Z,17.47
2019-06-20T06:47:03.800Z,17.44
2019-06-20T06:47:40.041Z,17.41
2019-06-20T06:48:15.695Z,17.41
2019-06-20T06:48:51.892Z,17.40
2019-06-20T06:49:28.114Z,17.35
2019-06-20T06:50:03.743Z,17.33
2019-06-20T06:50:40.080Z,17.31
2019-06-20T06:51:16.490Z,17.28
2019-06-20T06:51:53.121Z,17.30
2019-06-20T06:52:29.490Z,17.24
2019-06-20T06:53:05.764Z,17.22
2019-06-20T06:53:41.251Z,17.33
2019-06-20T06:54:18.823Z,17.33
2019-06-20T06:54:55.205Z,17.30
2019-06-20T06:55:30.660Z,17.35
2019-06-20T06:56:06.921Z,17.36
2019-06-20T06:56:43.253Z,17.36
2019-06-20T06:57:20.010Z,17.38
2019-06-20T06:57:56.294Z,17.43
2019-06-20T06:58:32.575Z,17.50
2019-06-20T06:59:08.128Z,17.47
2019-06-20T06:59:44.365Z,17.33
2019-06-20T07:00:21.436Z,17.31
2019-06-20T07:00:56.893Z,17.31
2019-06-20T07:01:33.399Z,17.34
2019-06-20T07:02:09.629Z,17.36
2019-06-20T07:02:45.114Z,17.43
2019-06-20T07:03:21.317Z,17.40
2019-06-20T07:03:57.592Z,17.40
2019-06-20T07:04:33.047Z,17.40
2019-06-20T07:05:10.003Z,17.35
2019-06-20T07:05:46.230Z,17.34
2019-06-20T07:06:21.924Z,17.34
2019-06-20T07:06:58.298Z,17.35
2019-06-20T07:07:34.594Z,17.41
2019-06-20T07:08:10.118Z,17.43
2019-06-20T07:08:46.380Z,17.40
2019-06-20T07:09:22.713Z,17.40
2019-06-20T07:09:59.150Z,17.41
2019-06-20T07:10:35.364Z,17.48
2019-06-20T07:11:11.717Z,17.43
2019-06-20T07:11:47.175Z,17.43
2019-06-20T07:12:23.420Z,17.37
2019-06-20T07:12:59.624Z,17.28
2019-06-20T07:13:35.132Z,17.25
2019-06-20T07:14:11.383Z,17.29
2019-06-20T07:14:47.595Z,17.28
2019-06-20T07:15:23.336Z,17.29
2019-06-20T07:15:59.819Z,17.31
2019-06-20T07:16:36.075Z,17.28
2019-06-20T07:17:11.537Z,17.26
2019-06-20T07:17:48.180Z,17.31
2019-06-20T07:18:24.404Z,17.31
2019-06-20T07:19:00.420Z,17.33
2019-06-20T07:19:36.712Z,17.31
2019-06-20T07:20:15.396Z,17.30
2019-06-20T07:20:50.918Z,17.28
2019-06-20T07:21:27.229Z,17.26
2019-06-20T07:22:03.532Z,17.23
2019-06-20T07:22:39.083Z,17.33
2019-06-20T07:23:15.320Z,17.34
2019-06-20T07:23:51.543Z,17.37
2019-06-20T07:24:26.996Z,17.33
2019-06-20T07:25:03.784Z,17.30
2019-06-20T07:25:40.139Z,17.29
2019-06-20T07:26:15.626Z,17.31
2019-06-20T07:26:52.010Z,17.35
2019-06-20T07:27:28.288Z,17.39
2019-06-20T07:28:03.776Z,17.41
2019-06-20T07:28:40.009Z,17.45
2019-06-20T07:29:16.546Z,17.43
2019-06-20T07:29:52.088Z,17.47
2019-06-20T07:30:28.503Z,17.48
2019-06-20T07:31:04.846Z,17.52
2019-06-20T07:31:40.338Z,17.58
2019-06-20T07:32:16.654Z,17.54
2019-06-20T07:32:52.878Z,17.53
2019-06-20T07:33:28.310Z,17.53
2019-06-20T07:34:04.564Z,17.53
2019-06-20T07:34:40.830Z,17.58
2019-06-20T07:35:16.815Z,17.58
2019-06-20T07:35:53.030Z,17.51
2019-06-20T07:36:29.268Z,17.51
2019-06-20T07:37:04.804Z,17.51
2019-06-20T07:37:41.033Z,17.54
2019-06-20T07:38:17.318Z,17.51
2019-06-20T07:38:52.876Z,17.54
2019-06-20T07:39:29.136Z,17.55
2019-06-20T07:40:06.869Z,17.51
2019-06-20T07:40:42.361Z,17.40
2019-06-20T07:41:18.651Z,17.43
2019-06-20T07:41:54.864Z,17.38
2019-06-20T07:42:30.393Z,17.41
2019-06-20T07:43:06.876Z,17.43
2019-06-20T07:43:43.133Z,17.47
2019-06-20T07:44:18.622Z,17.43
2019-06-20T07:44:54.854Z,17.44
2019-06-20T07:45:31.184Z,17.39
2019-06-20T07:46:06.683Z,17.34
2019-06-20T07:46:42.905Z,17.34
2019-06-20T07:47:19.186Z,17.35